createdAt,value
2017-06-09T00:01:02.057Z,0
2017-06-09T00:02:11.037Z,0
2017-06-09T00:03:19.791Z,0
2017-06-09T00:04:28.546Z,0
2017-06-09T00:05:37.605Z,0
2017-06-09T00:06:46.655Z,0
2017-06-09T00:07:55.709Z,0
2017-06-09T00:09:04.761Z,0
2017-06-09T00:10:13.504Z,0
2017-06-09T00:11:22.253Z,0
2017-06-09T00:12:31.232Z,0
2017-06-09T00:13:39.968Z,0
2017-06-09T00:14:48.710Z,0
2017-06-09T00:15:58.004Z,0
2017-06-09T00:17:07.061Z,0
2017-06-09T00:18:15.807Z,0
2017-06-09T00:19:24.550Z,0
2017-06-09T00:20:33.294Z,0
2017-06-09T00:21:42.647Z,0
2017-06-09T00:22:52.000Z,0
2017-06-09T00:24:01.044Z,0
2017-06-09T00:25:10.091Z,0
2017-06-09T00:26:18.838Z,0
2017-06-09T00:27:28.192Z,0
2017-06-09T00:28:37.537Z,0
2017-06-09T00:29:46.522Z,0
2017-06-09T00:30:55.870Z,0
2017-06-09T00:32:04.928Z,0
2017-06-09T00:33:13.939Z,0
2017-06-09T00:34:22.619Z,0
2017-06-09T00:35:31.661Z,0
2017-06-09T00:36:40.395Z,0
2017-06-09T00:37:49.746Z,0
2017-06-09T00:38:58.496Z,0
2017-06-09T00:40:07.246Z,0
2017-06-09T00:41:16.291Z,0
2017-06-09T00:42:25.276Z,0
2017-06-09T00:43:33.954Z,0
2017-06-09T00:44:42.994Z,0
2017-06-09T00:45:52.051Z,0
2017-06-09T00:47:01.379Z,0
2017-06-09T00:48:10.737Z,0
2017-06-09T00:49:20.086Z,0
2017-06-09T00:50:28.832Z,0
2017-06-09T00:51:37.821Z,0
2017-06-09T00:52:46.869Z,0
2017-06-09T00:53:55.913Z,0
2017-06-09T00:55:04.964Z,0
2017-06-09T00:56:14.058Z,0
2017-06-09T00:57:22.806Z,0
2017-06-09T00:58:31.549Z,0
2017-06-09T00:59:40.837Z,0
2017-06-09T01:00:49.585Z,0
2017-06-09T01:01:58.334Z,0
2017-06-09T01:03:07.088Z,0
2017-06-09T01:04:15.827Z,0
2017-06-09T01:05:24.575Z,0
2017-06-09T01:06:33.922Z,0
2017-06-09T01:07:42.971Z,0
2017-06-09T01:08:51.718Z,0
2017-06-09T01:10:00.759Z,0
2017-06-09T01:11:09.816Z,0
2017-06-09T01:12:19.177Z,0
2017-06-09T01:13:28.218Z,0
2017-06-09T01:14:37.264Z,0
2017-06-09T01:15:46.631Z,0
2017-06-09T01:16:55.380Z,0
2017-06-09T01:18:04.127Z,0
2017-06-09T01:19:12.804Z,0
2017-06-09T01:20:21.550Z,0
2017-06-09T01:21:30.911Z,0
2017-06-09T01:22:39.592Z,0
2017-06-09T01:23:48.651Z,0
2017-06-09T01:24:57.634Z,0
2017-06-09T01:26:06.685Z,0
2017-06-09T01:27:15.434Z,0
2017-06-09T01:28:24.214Z,0
2017-06-09T01:29:33.255Z,0
2017-06-09T01:30:41.942Z,0
2017-06-09T01:31:50.687Z,0
2017-06-09T01:33:00.028Z,0
2017-06-09T01:34:08.775Z,0
2017-06-09T01:35:17.822Z,0
2017-06-09T01:36:26.573Z,0
2017-06-09T01:37:35.620Z,0
2017-06-09T01:38:44.609Z,0
2017-06-09T01:39:53.352Z,0
2017-06-09T01:41:02.140Z,0
2017-06-09T01:42:11.195Z,0
2017-06-09T01:43:20.250Z,0
2017-06-09T01:44:28.967Z,0
2017-06-09T01:45:37.960Z,0
2017-06-09T01:46:47.005Z,0
2017-06-09T01:47:55.682Z,0
2017-06-09T01:49:04.427Z,0
2017-06-09T01:50:13.174Z,0
2017-06-09T01:51:22.218Z,0
2017-06-09T01:52:31.273Z,0
2017-06-09T01:53:40.634Z,0
2017-06-09T01:54:49.386Z,0
2017-06-09T01:55:58.739Z,0
2017-06-09T01:57:07.492Z,0
2017-06-09T01:58:16.548Z,0
2017-06-09T01:59:25.592Z,0
2017-06-09T02:00:34.641Z,0
2017-06-09T02:01:43.382Z,0
2017-06-09T02:02:52.129Z,0
2017-06-09T02:04:01.178Z,0
2017-06-09T02:05:09.934Z,0
2017-06-09T02:06:18.984Z,0
2017-06-09T02:07:27.727Z,0
2017-06-09T02:08:36.482Z,0
2017-06-09T02:09:45.536Z,0
2017-06-09T02:10:54.220Z,0
2017-06-09T02:12:03.267Z,0
2017-06-09T02:13:11.989Z,0
2017-06-09T02:14:20.742Z,0
2017-06-09T02:15:29.532Z,0
2017-06-09T02:16:38.577Z,0
2017-06-09T02:17:47.317Z,0
2017-06-09T02:18:56.364Z,0
2017-06-09T02:20:05.719Z,0
2017-06-09T02:21:14.475Z,0
2017-06-09T02:22:23.523Z,0
2017-06-09T02:23:32.880Z,0
2017-06-09T02:24:41.602Z,0
2017-06-09T02:25:50.563Z,0
2017-06-09T02:26:59.310Z,0
2017-06-09T02:28:08.063Z,0
2017-06-09T02:29:17.416Z,0
2017-06-09T02:30:26.173Z,0
2017-06-09T02:31:34.919Z,0
2017-06-09T02:32:43.992Z,0
2017-06-09T02:33:53.070Z,0
2017-06-09T02:35:02.151Z,0
2017-06-09T02:36:11.155Z,0
2017-06-09T02:37:20.233Z,0
2017-06-09T02:38:28.998Z,0
2017-06-09T02:39:38.089Z,0
2017-06-09T02:40:48.070Z,0
2017-06-09T02:41:56.842Z,0
2017-06-09T02:43:06.826Z,0
2017-06-09T02:44:16.189Z,0
2017-06-09T02:45:25.260Z,0
2017-06-09T02:46:34.279Z,0
2017-06-09T02:47:43.349Z,0
2017-06-09T02:48:52.436Z,0
2017-06-09T02:50:02.134Z,0
2017-06-09T02:51:10.906Z,0
2017-06-09T02:52:19.983Z,0
2017-06-09T02:53:28.762Z,0
2017-06-09T02:54:37.841Z,0
2017-06-09T02:55:46.917Z,0
2017-06-09T02:56:55.623Z,0
2017-06-09T02:58:04.396Z,0
2017-06-09T02:59:13.465Z,0
2017-06-09T03:00:22.538Z,0
2017-06-09T03:01:31.547Z,0
2017-06-09T03:02:40.353Z,0
2017-06-09T03:03:49.084Z,0
2017-06-09T03:04:58.765Z,0
2017-06-09T03:06:07.816Z,0
2017-06-09T03:07:16.889Z,0
2017-06-09T03:08:25.662Z,0
2017-06-09T03:09:34.429Z,0
2017-06-09T03:10:43.187Z,0
2017-06-09T03:11:51.887Z,0
2017-06-09T03:13:00.967Z,0
2017-06-09T03:14:09.728Z,0
2017-06-09T03:15:19.100Z,0
2017-06-09T03:16:28.160Z,0
2017-06-09T03:17:37.535Z,0
2017-06-09T03:18:46.606Z,0
2017-06-09T03:19:55.377Z,0
2017-06-09T03:21:04.141Z,0
2017-06-09T03:22:12.908Z,0
2017-06-09T03:23:22.280Z,0
2017-06-09T03:24:31.054Z,0
2017-06-09T03:25:39.817Z,0
2017-06-09T03:26:49.163Z,0
2017-06-09T03:27:58.542Z,0
2017-06-09T03:29:07.302Z,0
2017-06-09T03:30:16.419Z,0
2017-06-09T03:31:25.487Z,0
2017-06-09T03:32:34.255Z,0
2017-06-09T03:33:43.029Z,0
2017-06-09T03:34:51.799Z,0
2017-06-09T03:36:00.495Z,0
2017-06-09T03:37:09.266Z,0
2017-06-09T03:38:18.643Z,0
2017-06-09T03:39:27.715Z,0
2017-06-09T03:40:36.784Z,0
2017-06-09T03:41:46.457Z,0
2017-06-09T03:42:55.822Z,0
2017-06-09T03:44:04.904Z,0
2017-06-09T03:45:14.591Z,0
2017-06-09T03:46:23.364Z,0
2017-06-09T03:47:32.124Z,0
2017-06-09T03:48:40.887Z,0
2017-06-09T03:49:50.268Z,0
2017-06-09T03:50:59.042Z,0
2017-06-09T03:52:07.737Z,0
2017-06-09T03:53:16.502Z,0
2017-06-09T03:54:25.274Z,0
2017-06-09T03:55:34.368Z,5
2017-06-09T03:56:43.434Z,5
2017-06-09T03:57:52.204Z,5
2017-06-09T03:59:01.270Z,5
2017-06-09T04:00:10.283Z,5
2017-06-09T04:01:19.371Z,5
2017-06-09T04:02:28.139Z,5
2017-06-09T04:03:37.147Z,5
2017-06-09T04:04:46.519Z,5
2017-06-09T04:05:55.580Z,5
2017-06-09T04:07:04.669Z,5
2017-06-09T04:08:13.435Z,5
2017-06-09T04:09:22.501Z,5
2017-06-09T04:10:31.194Z,5
2017-06-09T04:11:40.565Z,5
2017-06-09T04:12:49.332Z,5
2017-06-09T04:13:58.400Z,5
2017-06-09T04:15:07.466Z,5
2017-06-09T04:16:16.537Z,5
2017-06-09T04:17:25.310Z,5
2017-06-09T04:18:34.388Z,10
2017-06-09T04:19:43.153Z,10
2017-06-09T04:20:52.223Z,10
2017-06-09T04:22:00.992Z,10
2017-06-09T04:23:09.753Z,10
2017-06-09T04:24:18.526Z,10
2017-06-09T04:25:27.281Z,10
2017-06-09T04:26:36.283Z,10
2017-06-09T04:27:45.049Z,10
2017-06-09T04:28:54.120Z,10
2017-06-09T04:30:02.817Z,10
2017-06-09T04:31:11.586Z,10
2017-06-09T04:32:20.645Z,10
2017-06-09T04:33:29.709Z,10
2017-06-09T04:34:38.782Z,10
2017-06-09T04:35:47.542Z,10
2017-06-09T04:36:56.621Z,10
2017-06-09T04:38:05.690Z,10
2017-06-09T04:39:14.385Z,10
2017-06-09T04:40:23.157Z,10
2017-06-09T04:41:32.232Z,10
2017-06-09T04:42:41.630Z,10
2017-06-09T04:43:50.399Z,10
2017-06-09T04:44:59.166Z,10
2017-06-09T04:46:07.939Z,15
2017-06-09T04:47:16.637Z,15
2017-06-09T04:48:25.703Z,15
2017-06-09T04:49:34.468Z,15
2017-06-09T04:50:43.480Z,15
2017-06-09T04:51:52.552Z,15
2017-06-09T04:53:01.624Z,15
2017-06-09T04:54:10.387Z,15
2017-06-09T04:55:19.156Z,15
2017-06-09T04:56:27.915Z,15
2017-06-09T04:57:36.925Z,15
2017-06-09T04:58:45.999Z,15
2017-06-09T04:59:54.781Z,15
2017-06-09T05:01:03.556Z,15
2017-06-09T05:02:12.624Z,20
2017-06-09T05:03:21.625Z,20
2017-06-09T05:04:30.696Z,20
2017-06-09T05:05:39.465Z,20
2017-06-09T05:06:48.226Z,20
2017-06-09T05:07:57.292Z,20
2017-06-09T05:09:06.062Z,20
2017-06-09T05:10:16.051Z,20
2017-06-09T05:11:25.124Z,20
2017-06-09T05:12:33.896Z,20
2017-06-09T05:13:42.663Z,20
2017-06-09T05:14:51.665Z,20
2017-06-09T05:16:00.439Z,15
2017-06-09T05:17:09.148Z,15
2017-06-09T05:18:17.848Z,15
2017-06-09T05:19:27.216Z,10
2017-06-09T05:20:36.601Z,10
2017-06-09T05:21:45.361Z,15
2017-06-09T05:22:55.012Z,15
2017-06-09T05:24:04.010Z,15
2017-06-09T05:25:12.742Z,15
2017-06-09T05:26:21.443Z,15
2017-06-09T05:27:30.521Z,20
2017-06-09T05:28:39.293Z,20
2017-06-09T05:29:48.099Z,20
2017-06-09T05:30:56.863Z,20
2017-06-09T05:32:05.939Z,20
2017-06-09T05:33:14.705Z,20
2017-06-09T05:34:23.721Z,20
2017-06-09T05:35:32.802Z,30
2017-06-09T05:36:42.183Z,30
2017-06-09T05:37:50.963Z,25
2017-06-09T05:38:59.738Z,30
2017-06-09T05:40:08.510Z,25
2017-06-09T05:41:17.580Z,25
2017-06-09T05:42:26.653Z,20
2017-06-09T05:43:35.726Z,15
2017-06-09T05:44:44.493Z,20
2017-06-09T05:45:53.266Z,20
2017-06-09T05:47:01.979Z,20
2017-06-09T05:48:10.679Z,15
2017-06-09T05:49:19.755Z,15
2017-06-09T05:50:28.524Z,20
2017-06-09T05:51:37.604Z,30
2017-06-09T05:52:46.676Z,25
2017-06-09T05:53:55.371Z,30
2017-06-09T05:55:04.735Z,30
2017-06-09T05:56:13.800Z,35
2017-06-09T05:57:22.566Z,35
2017-06-09T05:58:31.565Z,35
2017-06-09T05:59:40.637Z,35
2017-06-09T06:00:49.721Z,40
2017-06-09T06:01:58.725Z,40
2017-06-09T06:03:07.803Z,45
2017-06-09T06:04:16.954Z,45
2017-06-09T06:05:25.723Z,45
2017-06-09T06:06:34.835Z,45
2017-06-09T06:07:43.933Z,45
2017-06-09T06:08:53.005Z,45
2017-06-09T06:10:02.065Z,40
2017-06-09T06:11:11.445Z,40
2017-06-09T06:12:20.510Z,40
2017-06-09T06:13:29.574Z,40
2017-06-09T06:14:38.348Z,40
2017-06-09T06:15:47.728Z,35
2017-06-09T06:16:56.802Z,30
2017-06-09T06:18:06.185Z,35
2017-06-09T06:19:15.560Z,40
2017-06-09T06:20:24.938Z,40
2017-06-09T06:21:33.916Z,50
2017-06-09T06:22:43.303Z,50
2017-06-09T06:23:52.342Z,50
2017-06-09T06:25:01.108Z,50
2017-06-09T06:26:10.179Z,55
2017-06-09T06:27:19.568Z,45
2017-06-09T06:28:28.338Z,45
2017-06-09T06:29:37.124Z,45
2017-06-09T06:30:46.510Z,45
2017-06-09T06:31:55.276Z,45
2017-06-09T06:33:04.048Z,50
2017-06-09T06:34:13.058Z,50
2017-06-09T06:35:21.848Z,50
2017-06-09T06:36:30.915Z,50
2017-06-09T06:37:40.219Z,50
2017-06-09T06:38:49.222Z,50
2017-06-09T06:39:57.989Z,50
2017-06-09T06:41:06.797Z,50
2017-06-09T06:42:16.085Z,50
2017-06-09T06:43:25.434Z,50
2017-06-09T06:44:34.893Z,50
2017-06-09T06:45:43.980Z,50
2017-06-09T06:46:53.354Z,50
2017-06-09T06:48:02.114Z,55
2017-06-09T06:49:11.184Z,55
2017-06-09T06:50:19.900Z,55
2017-06-09T06:51:28.665Z,55
2017-06-09T06:52:37.791Z,55
2017-06-09T06:53:46.869Z,50
2017-06-09T06:54:55.635Z,55
2017-06-09T06:56:04.399Z,50
2017-06-09T06:57:13.099Z,55
2017-06-09T06:58:22.172Z,55
2017-06-09T06:59:30.880Z,55
2017-06-09T07:00:40.266Z,55
2017-06-09T07:01:48.988Z,55
2017-06-09T07:02:58.286Z,55
2017-06-09T07:04:06.988Z,60
2017-06-09T07:05:16.061Z,60
2017-06-09T07:06:24.830Z,60
2017-06-09T07:07:33.594Z,65
2017-06-09T07:08:42.297Z,70
2017-06-09T07:09:51.363Z,75
2017-06-09T07:11:00.137Z,75
2017-06-09T07:12:08.911Z,75
2017-06-09T07:13:17.683Z,75
2017-06-09T07:14:26.762Z,75
2017-06-09T07:15:35.832Z,70
2017-06-09T07:16:44.843Z,70
2017-06-09T07:17:54.158Z,65
2017-06-09T07:19:03.175Z,60
2017-06-09T07:20:12.246Z,55
2017-06-09T07:21:21.353Z,50
2017-06-09T07:22:30.126Z,50
2017-06-09T07:23:39.521Z,45
2017-06-09T07:24:48.589Z,45
2017-06-09T07:25:57.673Z,45
2017-06-09T07:27:06.744Z,45
2017-06-09T07:28:15.813Z,40
2017-06-09T07:29:24.581Z,40
2017-06-09T07:30:33.343Z,40
2017-06-09T07:31:43.026Z,40
2017-06-09T07:32:51.789Z,40
2017-06-09T07:34:00.487Z,40
2017-06-09T07:35:09.189Z,35
2017-06-09T07:36:18.257Z,35
2017-06-09T07:37:27.272Z,35
2017-06-09T07:38:36.045Z,35
2017-06-09T07:39:45.057Z,35
2017-06-09T07:40:53.821Z,35
2017-06-09T07:42:02.522Z,35
2017-06-09T07:43:11.290Z,35
2017-06-09T07:44:20.035Z,40
2017-06-09T07:45:29.042Z,40
2017-06-09T07:46:37.808Z,40
2017-06-09T07:47:47.144Z,45
2017-06-09T07:48:55.922Z,50
2017-06-09T07:50:04.677Z,50
2017-06-09T07:51:13.753Z,50
2017-06-09T07:52:22.520Z,50
2017-06-09T07:53:31.596Z,50
2017-06-09T07:54:40.356Z,50
2017-06-09T07:55:49.417Z,50
2017-06-09T07:56:58.118Z,50
2017-06-09T07:58:07.192Z,50
2017-06-09T07:59:16.811Z,50
2017-06-09T08:00:25.881Z,50
2017-06-09T08:01:35.275Z,45
2017-06-09T08:02:44.055Z,45
2017-06-09T08:03:52.755Z,40
2017-06-09T08:05:01.531Z,40
2017-06-09T08:06:10.847Z,40
2017-06-09T08:07:20.257Z,40
2017-06-09T08:08:29.319Z,40
2017-06-09T08:09:38.700Z,45
2017-06-09T08:10:47.471Z,50
2017-06-09T08:11:56.479Z,50
2017-06-09T08:13:05.242Z,50
2017-06-09T08:14:14.016Z,50
2017-06-09T08:15:23.027Z,50
2017-06-09T08:16:31.791Z,55
2017-06-09T08:17:40.869Z,60
2017-06-09T08:18:49.632Z,60
2017-06-09T08:19:58.400Z,65
2017-06-09T08:21:07.165Z,70
2017-06-09T08:22:16.237Z,70
2017-06-09T08:23:25.942Z,75
2017-06-09T08:24:35.014Z,80
2017-06-09T08:25:43.717Z,80
2017-06-09T08:26:52.494Z,80
2017-06-09T08:28:01.195Z,80
2017-06-09T08:29:10.264Z,80
2017-06-09T08:30:18.963Z,80
2017-06-09T08:31:27.981Z,80
2017-06-09T08:32:36.756Z,80
2017-06-09T08:33:46.104Z,80
2017-06-09T08:34:55.171Z,80
2017-06-09T08:36:03.935Z,80
2017-06-09T08:37:13.017Z,75
2017-06-09T08:38:22.104Z,70
2017-06-09T08:39:30.877Z,70
2017-06-09T08:40:39.945Z,70
2017-06-09T08:41:49.887Z,70
2017-06-09T08:42:58.653Z,65
2017-06-09T08:44:07.725Z,65
2017-06-09T08:45:16.794Z,65
2017-06-09T08:46:25.871Z,65
2017-06-09T08:47:35.205Z,60
2017-06-09T08:48:43.972Z,55
2017-06-09T08:49:52.683Z,55
2017-06-09T08:51:01.755Z,55
2017-06-09T08:52:10.806Z,55
2017-06-09T08:53:19.886Z,55
2017-06-09T08:54:28.899Z,65
2017-06-09T08:55:37.675Z,75
2017-06-09T08:56:46.445Z,85
2017-06-09T08:57:55.219Z,85
2017-06-09T08:59:04.239Z,80
2017-06-09T09:00:12.938Z,80
2017-06-09T09:01:21.945Z,80
2017-06-09T09:02:30.649Z,75
2017-06-09T09:03:39.398Z,65
2017-06-09T09:04:48.229Z,60
2017-06-09T09:05:57.623Z,50
2017-06-09T09:07:06.394Z,45
2017-06-09T09:08:15.158Z,45
2017-06-09T09:09:24.229Z,45
2017-06-09T09:10:32.988Z,35
2017-06-09T09:11:41.688Z,25
2017-06-09T09:12:50.392Z,25
2017-06-09T09:13:59.396Z,30
2017-06-09T09:15:08.405Z,35
2017-06-09T09:16:17.482Z,35
2017-06-09T09:17:26.565Z,35
2017-06-09T09:18:35.567Z,35
2017-06-09T09:19:44.994Z,35
2017-06-09T09:20:53.694Z,35
2017-06-09T09:22:02.697Z,30
2017-06-09T09:23:11.454Z,20
2017-06-09T09:24:20.230Z,20
2017-06-09T09:25:29.611Z,20
2017-06-09T09:26:38.680Z,30
2017-06-09T09:27:47.451Z,55
2017-06-09T09:28:56.220Z,55
2017-06-09T09:30:05.289Z,50
2017-06-09T09:31:14.349Z,45
2017-06-09T09:32:23.112Z,40
2017-06-09T09:33:32.192Z,40
2017-06-09T09:34:40.973Z,30
2017-06-09T09:35:50.630Z,20
2017-06-09T09:36:59.713Z,15
2017-06-09T09:38:08.720Z,15
2017-06-09T09:39:17.718Z,20
2017-06-09T09:40:26.748Z,30
2017-06-09T09:41:36.151Z,30
2017-06-09T09:42:45.218Z,30
2017-06-09T09:43:54.230Z,25
2017-06-09T09:45:03.313Z,25
2017-06-09T09:46:12.081Z,30
2017-06-09T09:47:21.140Z,20
2017-06-09T09:48:30.418Z,15
2017-06-09T09:49:39.125Z,15
2017-06-09T09:50:48.504Z,20
2017-06-09T09:51:57.571Z,25
2017-06-09T09:53:06.348Z,20
2017-06-09T09:54:15.366Z,15
2017-06-09T09:55:24.130Z,15
2017-06-09T09:56:33.221Z,15
2017-06-09T09:57:42.284Z,10
2017-06-09T09:58:51.365Z,15
2017-06-09T10:00:00.436Z,10
2017-06-09T10:01:09.205Z,10
2017-06-09T10:02:17.905Z,10
2017-06-09T10:03:26.666Z,5
2017-06-09T10:04:35.429Z,5
2017-06-09T10:05:44.698Z,5
2017-06-09T10:06:53.401Z,5
2017-06-09T10:08:02.485Z,10
2017-06-09T10:09:11.552Z,5
2017-06-09T10:10:20.943Z,5
2017-06-09T10:11:29.706Z,5
2017-06-09T10:12:38.476Z,5
2017-06-09T10:13:47.257Z,5
2017-06-09T10:14:56.333Z,5
2017-06-09T10:16:05.048Z,5
2017-06-09T10:17:13.821Z,10
2017-06-09T10:18:22.891Z,15
2017-06-09T10:19:31.655Z,15
2017-06-09T10:20:40.364Z,20
2017-06-09T10:21:49.644Z,15
2017-06-09T10:22:58.727Z,15
2017-06-09T10:24:07.500Z,25
2017-06-09T10:25:16.274Z,30
2017-06-09T10:26:25.040Z,30
2017-06-09T10:27:34.213Z,30
2017-06-09T10:28:43.226Z,25
2017-06-09T10:29:52.252Z,20
2017-06-09T10:31:01.319Z,15
2017-06-09T10:32:10.121Z,10
2017-06-09T10:33:19.202Z,10
2017-06-09T10:34:27.965Z,15
2017-06-09T10:35:36.728Z,15
2017-06-09T10:36:45.446Z,20
2017-06-09T10:37:54.215Z,20
2017-06-09T10:39:02.980Z,20
2017-06-09T10:40:11.948Z,20
2017-06-09T10:41:21.323Z,20
2017-06-09T10:42:30.390Z,20
2017-06-09T10:43:39.103Z,20
2017-06-09T10:44:47.802Z,20
2017-06-09T10:45:56.880Z,20
2017-06-09T10:47:05.961Z,20
2017-06-09T10:48:14.722Z,20
2017-06-09T10:49:23.590Z,20
2017-06-09T10:50:32.318Z,20
2017-06-09T10:51:42.002Z,20
2017-06-09T10:52:50.761Z,20
2017-06-09T10:53:59.458Z,20
2017-06-09T10:55:08.532Z,15
2017-06-09T10:56:17.613Z,15
2017-06-09T10:57:26.391Z,10
2017-06-09T10:58:35.456Z,10
2017-06-09T10:59:44.222Z,10
2017-06-09T11:00:52.983Z,5
2017-06-09T11:02:01.753Z,10
2017-06-09T11:03:10.835Z,15
2017-06-09T11:04:19.707Z,15
2017-06-09T11:05:28.414Z,15
2017-06-09T11:06:37.179Z,15
2017-06-09T11:07:45.953Z,10
2017-06-09T11:08:55.032Z,10
2017-06-09T11:10:04.100Z,10
2017-06-09T11:11:13.179Z,20
2017-06-09T11:12:21.884Z,55
2017-06-09T11:13:30.656Z,65
2017-06-09T11:14:40.344Z,65
2017-06-09T11:15:49.104Z,70
2017-06-09T11:16:57.871Z,60
2017-06-09T11:18:06.637Z,65
2017-06-09T11:19:15.441Z,75
2017-06-09T11:20:24.526Z,75
2017-06-09T11:21:33.594Z,85
2017-06-09T11:22:42.296Z,85
2017-06-09T11:23:51.363Z,95
2017-06-09T11:25:00.131Z,100
2017-06-09T11:26:08.832Z,100
2017-06-09T11:27:17.910Z,95
2017-06-09T11:28:27.280Z,80
2017-06-09T11:29:35.976Z,50
2017-06-09T11:30:45.052Z,45
2017-06-09T11:31:53.817Z,25
2017-06-09T11:33:02.592Z,20
2017-06-09T11:34:11.663Z,20
2017-06-09T11:35:21.277Z,15
2017-06-09T11:36:30.326Z,10
2017-06-09T11:37:39.090Z,5
2017-06-09T11:38:47.860Z,5
2017-06-09T11:39:56.938Z,20
2017-06-09T11:41:05.707Z,30
2017-06-09T11:42:14.786Z,40
2017-06-09T11:43:23.555Z,40
2017-06-09T11:44:32.454Z,45
2017-06-09T11:45:41.541Z,45
2017-06-09T11:46:50.923Z,40
2017-06-09T11:47:59.980Z,50
2017-06-09T11:49:08.990Z,40
2017-06-09T11:50:17.757Z,35
2017-06-09T11:51:26.826Z,30
2017-06-09T11:52:35.604Z,30
2017-06-09T11:53:44.985Z,20
2017-06-09T11:54:54.359Z,15
2017-06-09T11:56:03.419Z,20
2017-06-09T11:57:12.176Z,30
2017-06-09T11:58:21.237Z,30
2017-06-09T11:59:30.309Z,25
2017-06-09T12:00:39.070Z,30
2017-06-09T12:01:47.833Z,30
2017-06-09T12:02:56.902Z,30
2017-06-09T12:04:05.658Z,30
2017-06-09T12:05:14.430Z,30
2017-06-09T12:06:23.515Z,25
2017-06-09T12:07:32.285Z,15
2017-06-09T12:08:41.036Z,25
2017-06-09T12:09:50.420Z,30
2017-06-09T12:10:59.211Z,20
2017-06-09T12:12:08.237Z,20
2017-06-09T12:13:17.008Z,15
2017-06-09T12:14:25.761Z,25
2017-06-09T12:15:34.523Z,30
2017-06-09T12:16:43.283Z,30
2017-06-09T12:17:52.051Z,20
2017-06-09T12:19:01.137Z,20
2017-06-09T12:20:09.913Z,15
2017-06-09T12:21:18.980Z,15
2017-06-09T12:22:27.741Z,15
2017-06-09T12:23:36.447Z,20
2017-06-09T12:24:45.211Z,20
2017-06-09T12:25:53.969Z,15
2017-06-09T12:27:03.050Z,20
2017-06-09T12:28:12.117Z,20
2017-06-09T12:29:21.181Z,20
2017-06-09T12:30:29.959Z,30
2017-06-09T12:31:39.041Z,45
2017-06-09T12:32:47.754Z,85
2017-06-09T12:33:56.526Z,80
2017-06-09T12:35:05.605Z,55
2017-06-09T12:36:14.677Z,40
2017-06-09T12:37:24.055Z,55
2017-06-09T12:38:33.358Z,30
2017-06-09T12:39:42.433Z,25
2017-06-09T12:40:51.132Z,20
2017-06-09T12:42:00.212Z,15
2017-06-09T12:43:09.579Z,15
2017-06-09T12:44:18.287Z,25
2017-06-09T12:45:27.357Z,30
2017-06-09T12:46:36.732Z,40
2017-06-09T12:47:45.738Z,50
2017-06-09T12:48:54.503Z,55
2017-06-09T12:50:03.262Z,45
2017-06-09T12:51:12.331Z,35
2017-06-09T12:52:21.247Z,30
2017-06-09T12:53:30.330Z,40
2017-06-09T12:54:39.062Z,50
2017-06-09T12:55:48.064Z,30
2017-06-09T12:56:57.128Z,25
2017-06-09T12:58:06.503Z,20
2017-06-09T12:59:15.512Z,20
2017-06-09T13:00:24.275Z,25
2017-06-09T13:01:33.342Z,15
2017-06-09T13:02:42.403Z,20
2017-06-09T13:03:51.171Z,25
2017-06-09T13:04:59.868Z,25
2017-06-09T13:06:09.171Z,10
2017-06-09T13:07:18.242Z,10
2017-06-09T13:08:27.012Z,10
2017-06-09T13:09:35.727Z,5
2017-06-09T13:10:44.437Z,5
2017-06-09T13:11:53.812Z,5
2017-06-09T13:13:03.117Z,5
2017-06-09T13:14:12.190Z,5
2017-06-09T13:15:20.954Z,5
2017-06-09T13:16:30.032Z,5
2017-06-09T13:17:39.416Z,5
2017-06-09T13:18:48.118Z,5
2017-06-09T13:19:56.882Z,0
2017-06-09T13:21:05.649Z,5
2017-06-09T13:22:15.022Z,5
2017-06-09T13:23:24.199Z,5
2017-06-09T13:24:33.203Z,10
2017-06-09T13:25:42.479Z,5
2017-06-09T13:26:51.564Z,5
2017-06-09T13:28:00.256Z,5
2017-06-09T13:29:09.631Z,5
2017-06-09T13:30:18.398Z,5
2017-06-09T13:31:27.403Z,5
2017-06-09T13:32:36.771Z,5
2017-06-09T13:33:45.467Z,10
2017-06-09T13:34:54.237Z,10
2017-06-09T13:36:02.999Z,10
2017-06-09T13:37:11.776Z,10
2017-06-09T13:38:20.540Z,10
2017-06-09T13:39:29.296Z,10
2017-06-09T13:40:38.053Z,10
2017-06-09T13:41:46.784Z,10
2017-06-09T13:42:55.482Z,10
2017-06-09T13:44:04.190Z,10
2017-06-09T13:45:12.904Z,15
2017-06-09T13:46:21.619Z,15
2017-06-09T13:47:30.375Z,20
2017-06-09T13:48:39.450Z,20
2017-06-09T13:49:48.455Z,25
2017-06-09T13:50:57.227Z,30
2017-06-09T13:52:06.316Z,35
2017-06-09T13:53:15.080Z,40
2017-06-09T13:54:23.866Z,45
2017-06-09T13:55:32.627Z,50
2017-06-09T13:56:41.699Z,55
2017-06-09T13:57:50.782Z,60
2017-06-09T13:58:59.547Z,70
2017-06-09T14:00:08.625Z,70
2017-06-09T14:01:17.391Z,70
2017-06-09T14:02:26.453Z,70
2017-06-09T14:03:35.211Z,70
2017-06-09T14:04:43.981Z,70
2017-06-09T14:05:52.748Z,70
2017-06-09T14:07:01.461Z,70
2017-06-09T14:08:10.530Z,70
2017-06-09T14:09:19.867Z,65
2017-06-09T14:10:28.953Z,65
2017-06-09T14:11:38.108Z,60
2017-06-09T14:12:46.893Z,50
2017-06-09T14:13:55.678Z,45
2017-06-09T14:15:05.069Z,45
2017-06-09T14:16:14.064Z,45
2017-06-09T14:17:23.084Z,40
2017-06-09T14:18:32.506Z,60
2017-06-09T14:19:41.521Z,60
2017-06-09T14:20:50.289Z,45
2017-06-09T14:21:58.993Z,45
2017-06-09T14:23:07.788Z,55
2017-06-09T14:24:16.530Z,45
2017-06-09T14:25:25.594Z,65
2017-06-09T14:26:34.367Z,65
2017-06-09T14:27:43.441Z,60
2017-06-09T14:28:52.745Z,45
2017-06-09T14:30:01.508Z,40
2017-06-09T14:31:10.577Z,55
2017-06-09T14:32:19.653Z,55
2017-06-09T14:33:28.715Z,40
2017-06-09T14:34:37.717Z,30
2017-06-09T14:35:47.661Z,45
2017-06-09T14:36:56.736Z,60
2017-06-09T14:38:06.414Z,60
2017-06-09T14:39:15.185Z,45
2017-06-09T14:40:24.361Z,30
2017-06-09T14:41:33.063Z,35
2017-06-09T14:42:42.430Z,40
2017-06-09T14:43:51.226Z,45
2017-06-09T14:45:00.294Z,40
2017-06-09T14:46:09.294Z,30
2017-06-09T14:47:18.061Z,25
2017-06-09T14:48:27.059Z,15
2017-06-09T14:49:36.423Z,15
2017-06-09T14:50:45.126Z,15
2017-06-09T14:51:54.128Z,15
2017-06-09T14:53:03.199Z,20
2017-06-09T14:54:12.271Z,20
2017-06-09T14:55:21.355Z,20
2017-06-09T14:56:30.124Z,25
2017-06-09T14:57:39.123Z,35
2017-06-09T14:58:47.830Z,45
2017-06-09T14:59:56.606Z,45
2017-06-09T15:01:05.682Z,50
2017-06-09T15:02:14.446Z,55
2017-06-09T15:03:23.220Z,45
2017-06-09T15:04:32.298Z,45
2017-06-09T15:05:41.062Z,45
2017-06-09T15:06:49.866Z,45
2017-06-09T15:07:58.641Z,45
2017-06-09T15:09:07.703Z,40
2017-06-09T15:10:16.794Z,40
2017-06-09T15:11:25.794Z,40
2017-06-09T15:12:34.800Z,40
2017-06-09T15:13:43.870Z,40
2017-06-09T15:14:52.957Z,35
2017-06-09T15:16:02.331Z,30
2017-06-09T15:17:11.425Z,30
2017-06-09T15:18:20.513Z,30
2017-06-09T15:19:29.279Z,30
2017-06-09T15:20:38.050Z,25
2017-06-09T15:21:46.813Z,25
2017-06-09T15:22:55.885Z,25
2017-06-09T15:24:05.266Z,20
2017-06-09T15:25:13.963Z,25
2017-06-09T15:26:23.039Z,25
2017-06-09T15:27:31.745Z,30
2017-06-09T15:28:40.829Z,20
2017-06-09T15:29:49.835Z,25
2017-06-09T15:30:58.900Z,20
2017-06-09T15:32:07.661Z,20
2017-06-09T15:33:16.674Z,25
2017-06-09T15:34:25.746Z,35
2017-06-09T15:35:34.516Z,40
2017-06-09T15:36:43.882Z,40
2017-06-09T15:37:52.622Z,30
2017-06-09T15:39:01.383Z,25
2017-06-09T15:40:10.396Z,20
2017-06-09T15:41:19.467Z,35
2017-06-09T15:42:28.236Z,35
2017-06-09T15:43:37.321Z,30
2017-06-09T15:44:46.394Z,30
2017-06-09T15:45:55.153Z,30
2017-06-09T15:47:03.916Z,30
2017-06-09T15:48:13.216Z,30
2017-06-09T15:49:21.914Z,25
2017-06-09T15:50:30.639Z,20
2017-06-09T15:51:39.641Z,20
2017-06-09T15:52:48.355Z,20
2017-06-09T15:53:57.123Z,20
2017-06-09T15:55:06.167Z,20
2017-06-09T15:56:15.182Z,20
2017-06-09T15:57:23.947Z,30
2017-06-09T15:58:33.325Z,35
2017-06-09T15:59:42.101Z,20
2017-06-09T16:00:50.889Z,15
2017-06-09T16:01:59.658Z,15
2017-06-09T16:03:08.432Z,25
2017-06-09T16:04:17.203Z,30
2017-06-09T16:05:26.295Z,25
2017-06-09T16:06:35.364Z,25
2017-06-09T16:07:44.369Z,20
2017-06-09T16:08:53.440Z,15
2017-06-09T16:10:02.517Z,20
2017-06-09T16:11:11.899Z,25
2017-06-09T16:12:21.129Z,25
2017-06-09T16:13:30.197Z,25
2017-06-09T16:14:39.269Z,20
2017-06-09T16:15:48.287Z,20
2017-06-09T16:16:57.062Z,20
2017-06-09T16:18:05.791Z,20
2017-06-09T16:19:14.542Z,25
2017-06-09T16:20:23.244Z,25
2017-06-09T16:21:31.936Z,25
2017-06-09T16:22:40.701Z,25
2017-06-09T16:23:49.476Z,30
2017-06-09T16:24:58.244Z,40
2017-06-09T16:26:07.318Z,40
2017-06-09T16:27:16.600Z,45
2017-06-09T16:28:26.282Z,40
2017-06-09T16:29:35.352Z,45
2017-06-09T16:30:44.671Z,40
2017-06-09T16:31:53.740Z,40
2017-06-09T16:33:03.056Z,30
2017-06-09T16:34:12.435Z,25